Aviation Digital Data Service (ADDS)

Output produced by METARs form (1128 UTC 19 January 2019)
found at http://www.aviationweather.gov/metar/data/
 
SKUC 191100Z 09003KT 9999 BKN020 24/22 A2991
SKAR 191100Z 04003KT 9999 SCT022 SCT090 18/17 A3000
SKEJ 191100Z 00000KT 9999 SCT025 25/24 A2981
SKBQ 191100Z 01003KT 4000 BR BKN006 25/24 A2982
TAF SKBQ 191100Z 1912/2012 01012KT 9999 FEW017 
     TEMPO 1914/1921 CAVOK TX32/1918Z TN23/2011Z
       
SKBO 191100Z VRB02KT 9999 BKN020 SCT200 11/09 A3031 REDZ
TAF SKBO 191100Z 1912/2012 05006KT 9999 FEW020 SCT090 
     TEMPO 1915/1922 12010KT SCT020 BKN090 
     PROB40 1919/1920 8000 DZ BKN017 TX20/1919Z TN08/2011Z
       
SKBG 191100Z 10003KT 9999 FEW010 20/20 A2999
TAF SKBG 191100Z 1912/2012 15006KT 9999 FEW010 SCT070 
     BECMG 1915/1917 33006KT SCT015 TX27/1918Z TN19/2011Z
       
SKCL 191100Z VRB02KT 9999 BKN040 BKN100 21/19 A2996
TAF SKCL 191100Z 1912/2012 04005KT 9999 FEW030 BKN120 
     BECMG 1916/1918 33010KT 
     BECMG 2001/2003 02005KT TX30/1919Z TN20/2011Z
       
SKLC 191100Z 00000KT 7000 SCT010 26/23 A2983 RMK HZ
SKCG 191100Z 08003KT 030V120 CAVOK 24/23 A2980
TAF SKCG 191100Z 1912/2012 03010KT 9999 FEW020 
     TEMPO 1920/2002 CAVOK TX32/1918Z TN23/2011Z
       
SKCC 191105Z 36006KT 5000 BCFG BKNO18 23/23 A2997
TAF SKCC 191100Z 1912/2012 VRB02KT 9999 SCT023 
     BECMG 1914/1916 36010KT 
     TEMPO 1921/2001 26005KT TX30/1918Z TN22/2011Z
       
SKIB 191100Z 29004KT 9999 SCT030 SCT100 22/19 A3006
SKIP 191100Z 00000KT 0500 FG -DZ VV003 08/08 A3039 RMK AD BLW MNM MET
SKLT 191100Z 00000KT 8000 -RA BKN009 BKN080 23/23 A2992
TAF SKLT 191100Z 1912/2012 21006KT 9999 SCT012 BKN080 
     TEMPO 1913/1916 8000 DZ BKN010 
     TEMPO 1920/1923 01008KT 7000 TSRA SCT010CB 
     BECMG 1923/2001 VRB02KT TX31/1918Z TN22/2011Z
       
SKMD 191100Z 00000KT 7000 -DZ SCT025 BKN100 19/17 A3011 RMK HZ
SKRG 191100Z VRB02KT 9999 BKN010 SCT080 14/14 A3027 REDZ
TAF SKRG 191100Z 1912/2012 02006KT 9999 SCT017 BKN090 
     BECMG 1914/1916 13010KT FEW020 SCT100 
     BECMG 2000/2002 01004KT SCT020 
     TEMPO 2007/2011 5000 DZ BR BKN010 TX22/1919Z TN12/2011Z
       
SKMR 191100Z 00000KT 8000 SCT018 25/25 A2982 RMK HZ
SKNV 191100Z VRB02KT 9999 FEW050 BKN120 24/21 A2989
SKPS 191100Z 00000KT 1000 BCFG BKN010 15/14 A3013 RMK AD BLW MNM MET
SKPE 191100Z 11004KT 9999 FEW016 SCT080 19/18 A3003
TAF SKPE 191100Z 1912/2012 10006KT 9999 FEW017 SCT090 
     BECMG 1915/1917 25008KT SCT015 BKN080 
     BECMG 2001/2003 12005KT TX28/1919Z TN18/2011Z
       
SKPV 191100Z VRB04KT 9999 FEW017 26/21 A2995
SKPC 191100Z 04003KT CAVOK 25/22 A2984
SKUI 191100Z 00000KT 5000 BR BKN009 OVC080 25/24 A2979
SKRH 191100Z 09010KT 9999 BKN015 26/21 A2990
SKSP 191100Z 03008KT 9999 FEW017 SCT080 25/21 A2993
TAF SKSP 191100Z 1912/2012 05010KT 9999 FEW017 TX30/1919Z TN26/2011Z
       
SKSM 191100Z 00000KT 9000 FEW020 23/21 A2983 RMK HZ
SKVP 191100Z 06011KT 9999 FEW015 24/21 A2991
SKVV 191100Z 00000KT 9999 BKN020 SCT090 23/20 A2995